sensor_id;sensor_type;location;lat;lon;timestamp;P1;durP1;ratioP1;P2;durP2;ratioP2
735;SDS011;352;48.626;9.238;2023-07-31T00:01:56;2.63;;;2.43;;
735;SDS011;352;48.626;9.238;2023-07-31T00:04:23;3.07;;;2.60;;
735;SDS011;352;48.626;9.238;2023-07-31T00:06:50;3.53;;;2.60;;
735;SDS011;352;48.626;9.238;2023-07-31T00:09:16;3.20;;;2.90;;
735;SDS011;352;48.626;9.238;2023-07-31T00:11:45;3.30;;;2.40;;
735;SDS011;352;48.626;9.238;2023-07-31T00:14:11;6.90;;;3.07;;
735;SDS011;352;48.626;9.238;2023-07-31T00:16:38;2.83;;;2.63;;
735;SDS011;352;48.626;9.238;2023-07-31T00:19:05;6.70;;;3.10;;
735;SDS011;352;48.626;9.238;2023-07-31T00:21:32;8.53;;;3.77;;
735;SDS011;352;48.626;9.238;2023-07-31T00:23:59;2.70;;;2.50;;
735;SDS011;352;48.626;9.238;2023-07-31T00:26:26;2.97;;;2.47;;
735;SDS011;352;48.626;9.238;2023-07-31T00:28:54;4.27;;;2.53;;
735;SDS011;352;48.626;9.238;2023-07-31T00:31:21;3.03;;;2.60;;
735;SDS011;352;48.626;9.238;2023-07-31T00:33:48;3.80;;;2.43;;
735;SDS011;352;48.626;9.238;2023-07-31T00:36:15;2.73;;;2.53;;
735;SDS011;352;48.626;9.238;2023-07-31T00:38:42;2.83;;;2.27;;
735;SDS011;352;48.626;9.238;2023-07-31T00:41:09;4.00;;;2.83;;
735;SDS011;352;48.626;9.238;2023-07-31T00:43:36;4.10;;;2.50;;
735;SDS011;352;48.626;9.238;2023-07-31T00:46:04;5.40;;;2.23;;
735;SDS011;352;48.626;9.238;2023-07-31T00:48:31;4.27;;;2.83;;
735;SDS011;352;48.626;9.238;2023-07-31T00:50:58;4.23;;;2.70;;
735;SDS011;352;48.626;9.238;2023-07-31T00:53:26;3.03;;;2.50;;
735;SDS011;352;48.626;9.238;2023-07-31T00:55:53;5.10;;;2.70;;
735;SDS011;352;48.626;9.238;2023-07-31T00:58:20;4.43;;;2.60;;
735;SDS011;352;48.626;9.238;2023-07-31T01:00:47;4.47;;;2.67;;
735;SDS011;352;48.626;9.238;2023-07-31T01:03:16;3.20;;;2.47;;
735;SDS011;352;48.626;9.238;2023-07-31T01:05:47;4.00;;;2.43;;
735;SDS011;352;48.626;9.238;2023-07-31T01:08:23;3.57;;;2.70;;
735;SDS011;352;48.626;9.238;2023-07-31T01:10:54;5.33;;;2.93;;
735;SDS011;352;48.626;9.238;2023-07-31T01:13:25;4.57;;;2.60;;
735;SDS011;352;48.626;9.238;2023-07-31T01:15:52;5.50;;;2.50;;
735;SDS011;352;48.626;9.238;2023-07-31T01:18:20;2.87;;;2.57;;
735;SDS011;352;48.626;9.238;2023-07-31T01:20:48;2.27;;;2.10;;
735;SDS011;352;48.626;9.238;2023-07-31T01:23:42;2.83;;;2.40;;
735;SDS011;352;48.626;9.238;2023-07-31T01:26:33;6.20;;;2.80;;
735;SDS011;352;48.626;9.238;2023-07-31T01:29:03;2.80;;;2.40;;
735;SDS011;352;48.626;9.238;2023-07-31T01:31:36;4.63;;;2.23;;
735;SDS011;352;48.626;9.238;2023-07-31T01:34:04;3.93;;;2.70;;
735;SDS011;352;48.626;9.238;2023-07-31T01:36:32;5.90;;;2.73;;
735;SDS011;352;48.626;9.238;2023-07-31T01:38:59;3.67;;;2.90;;
735;SDS011;352;48.626;9.238;2023-07-31T01:41:27;4.33;;;2.80;;
735;SDS011;352;48.626;9.238;2023-07-31T01:43:55;3.10;;;2.60;;
735;SDS011;352;48.626;9.238;2023-07-31T01:46:22;3.60;;;2.70;;
735;SDS011;352;48.626;9.238;2023-07-31T01:48:48;4.23;;;3.13;;
735;SDS011;352;48.626;9.238;2023-07-31T01:51:15;3.10;;;2.37;;
735;SDS011;352;48.626;9.238;2023-07-31T01:53:42;3.33;;;2.57;;
735;SDS011;352;48.626;9.238;2023-07-31T01:56:08;2.77;;;2.47;;
735;SDS011;352;48.626;9.238;2023-07-31T01:58:35;4.47;;;2.63;;
735;SDS011;352;48.626;9.238;2023-07-31T02:01:03;5.73;;;2.67;;
735;SDS011;352;48.626;9.238;2023-07-31T02:03:30;2.93;;;2.23;;
735;SDS011;352;48.626;9.238;2023-07-31T02:05:57;4.93;;;2.60;;
735;SDS011;352;48.626;9.238;2023-07-31T02:08:23;6.53;;;2.50;;
735;SDS011;352;48.626;9.238;2023-07-31T02:10:50;3.20;;;2.83;;
735;SDS011;352;48.626;9.238;2023-07-31T02:13:17;2.70;;;2.50;;
735;SDS011;352;48.626;9.238;2023-07-31T02:15:44;3.30;;;2.37;;
735;SDS011;352;48.626;9.238;2023-07-31T02:18:13;3.90;;;2.47;;
735;SDS011;352;48.626;9.238;2023-07-31T02:20:39;5.73;;;2.73;;
735;SDS011;352;48.626;9.238;2023-07-31T02:23:06;4.20;;;2.77;;
735;SDS011;352;48.626;9.238;2023-07-31T02:25:33;2.87;;;2.10;;
735;SDS011;352;48.626;9.238;2023-07-31T02:27:59;4.40;;;2.60;;
735;SDS011;352;48.626;9.238;2023-07-31T02:30:26;3.70;;;2.57;;
735;SDS011;352;48.626;9.238;2023-07-31T02:32:53;3.33;;;2.50;;
735;SDS011;352;48.626;9.238;2023-07-31T02:35:21;4.47;;;2.40;;
735;SDS011;352;48.626;9.238;2023-07-31T02:37:47;3.70;;;2.60;;
735;SDS011;352;48.626;9.238;2023-07-31T02:40:14;2.50;;;2.10;;
735;SDS011;352;48.626;9.238;2023-07-31T02:42:41;3.90;;;2.13;;
735;SDS011;352;48.626;9.238;2023-07-31T02:45:08;2.60;;;2.37;;
735;SDS011;352;48.626;9.238;2023-07-31T02:47:35;2.93;;;2.10;;
735;SDS011;352;48.626;9.238;2023-07-31T02:50:02;4.63;;;2.30;;
735;SDS011;352;48.626;9.238;2023-07-31T02:52:30;2.60;;;2.20;;
735;SDS011;352;48.626;9.238;2023-07-31T02:54:57;6.37;;;2.90;;
735;SDS011;352;48.626;9.238;2023-07-31T02:57:23;3.13;;;2.50;;
735;SDS011;352;48.626;9.238;2023-07-31T02:59:50;3.80;;;2.77;;
735;SDS011;352;48.626;9.238;2023-07-31T03:02:17;2.50;;;2.33;;
735;SDS011;352;48.626;9.238;2023-07-31T03:04:44;5.07;;;3.63;;
735;SDS011;352;48.626;9.238;2023-07-31T03:07:11;4.57;;;2.50;;
735;SDS011;352;48.626;9.238;2023-07-31T03:09:39;3.20;;;2.43;;
735;SDS011;352;48.626;9.238;2023-07-31T03:12:06;2.83;;;2.60;;
735;SDS011;352;48.626;9.238;2023-07-31T03:14:33;4.83;;;2.70;;
735;SDS011;352;48.626;9.238;2023-07-31T03:17:00;2.83;;;2.30;;
735;SDS011;352;48.626;9.238;2023-07-31T03:19:28;4.10;;;2.60;;
735;SDS011;352;48.626;9.238;2023-07-31T03:21:56;2.60;;;2.40;;
735;SDS011;352;48.626;9.238;2023-07-31T03:24:23;2.43;;;2.10;;
735;SDS011;352;48.626;9.238;2023-07-31T03:26:51;3.17;;;2.70;;
735;SDS011;352;48.626;9.238;2023-07-31T03:29:18;9.93;;;4.10;;
735;SDS011;352;48.626;9.238;2023-07-31T03:31:44;3.57;;;2.77;;
735;SDS011;352;48.626;9.238;2023-07-31T03:34:11;6.27;;;3.03;;
735;SDS011;352;48.626;9.238;2023-07-31T03:36:39;5.43;;;2.67;;
735;SDS011;352;48.626;9.238;2023-07-31T03:39:06;6.00;;;3.03;;
735;SDS011;352;48.626;9.238;2023-07-31T03:41:33;3.90;;;2.57;;
735;SDS011;352;48.626;9.238;2023-07-31T03:44:01;3.30;;;3.00;;
735;SDS011;352;48.626;9.238;2023-07-31T03:46:27;3.70;;;2.83;;
735;SDS011;352;48.626;9.238;2023-07-31T03:48:54;5.67;;;2.20;;
735;SDS011;352;48.626;9.238;2023-07-31T03:51:21;3.10;;;2.80;;
735;SDS011;352;48.626;9.238;2023-07-31T03:53:47;4.27;;;3.00;;
735;SDS011;352;48.626;9.238;2023-07-31T03:56:14;4.70;;;2.67;;
735;SDS011;352;48.626;9.238;2023-07-31T03:58:41;4.90;;;2.70;;
735;SDS011;352;48.626;9.238;2023-07-31T04:01:09;3.10;;;2.80;;
735;SDS011;352;48.626;9.238;2023-07-31T04:03:36;5.63;;;3.13;;
735;SDS011;352;48.626;9.238;2023-07-31T04:06:03;3.13;;;2.83;;
735;SDS011;352;48.626;9.238;2023-07-31T04:08:29;3.93;;;2.57;;
735;SDS011;352;48.626;9.238;2023-07-31T04:10:56;4.03;;;2.97;;
735;SDS011;352;48.626;9.238;2023-07-31T04:13:23;4.60;;;2.77;;
735;SDS011;352;48.626;9.238;2023-07-31T04:15:52;5.13;;;2.40;;
735;SDS011;352;48.626;9.238;2023-07-31T04:18:20;3.63;;;2.80;;
735;SDS011;352;48.626;9.238;2023-07-31T04:20:47;2.60;;;2.40;;
735;SDS011;352;48.626;9.238;2023-07-31T04:23:14;3.47;;;2.53;;
735;SDS011;352;48.626;9.238;2023-07-31T04:25:41;2.90;;;2.70;;
735;SDS011;352;48.626;9.238;2023-07-31T04:28:08;4.13;;;3.30;;
735;SDS011;352;48.626;9.238;2023-07-31T04:30:34;5.17;;;2.97;;
735;SDS011;352;48.626;9.238;2023-07-31T04:33:01;2.70;;;2.50;;
735;SDS011;352;48.626;9.238;2023-07-31T04:35:29;4.20;;;2.97;;
735;SDS011;352;48.626;9.238;2023-07-31T04:37:56;2.87;;;2.53;;
735;SDS011;352;48.626;9.238;2023-07-31T04:40:23;3.20;;;2.63;;
735;SDS011;352;48.626;9.238;2023-07-31T04:42:49;4.03;;;2.80;;
735;SDS011;352;48.626;9.238;2023-07-31T04:45:16;3.63;;;2.43;;
735;SDS011;352;48.626;9.238;2023-07-31T04:47:43;3.30;;;2.50;;
735;SDS011;352;48.626;9.238;2023-07-31T04:50:10;3.60;;;2.33;;
735;SDS011;352;48.626;9.238;2023-07-31T04:52:38;5.20;;;3.27;;
735;SDS011;352;48.626;9.238;2023-07-31T04:55:05;3.87;;;2.90;;
735;SDS011;352;48.626;9.238;2023-07-31T04:57:32;4.30;;;3.10;;
735;SDS011;352;48.626;9.238;2023-07-31T04:59:59;2.53;;;2.30;;
735;SDS011;352;48.626;9.238;2023-07-31T05:02:26;5.10;;;2.80;;
735;SDS011;352;48.626;9.238;2023-07-31T05:04:52;3.70;;;2.90;;
735;SDS011;352;48.626;9.238;2023-07-31T05:07:19;3.20;;;2.70;;
735;SDS011;352;48.626;9.238;2023-07-31T05:09:47;2.77;;;2.50;;
735;SDS011;352;48.626;9.238;2023-07-31T05:12:14;4.30;;;2.93;;
735;SDS011;352;48.626;9.238;2023-07-31T05:14:40;6.93;;;3.23;;
735;SDS011;352;48.626;9.238;2023-07-31T05:17:07;4.20;;;3.00;;
735;SDS011;352;48.626;9.238;2023-07-31T05:19:34;4.53;;;2.90;;
735;SDS011;352;48.626;9.238;2023-07-31T05:22:00;2.90;;;2.70;;
735;SDS011;352;48.626;9.238;2023-07-31T05:24:27;2.80;;;2.60;;
735;SDS011;352;48.626;9.238;2023-07-31T05:26:56;4.30;;;2.57;;
735;SDS011;352;48.626;9.238;2023-07-31T05:29:22;5.53;;;3.00;;
735;SDS011;352;48.626;9.238;2023-07-31T05:31:49;4.07;;;2.37;;
735;SDS011;352;48.626;9.238;2023-07-31T05:34:16;4.13;;;2.37;;
735;SDS011;352;48.626;9.238;2023-07-31T05:36:42;3.30;;;2.20;;
735;SDS011;352;48.626;9.238;2023-07-31T05:39:09;3.87;;;2.90;;
735;SDS011;352;48.626;9.238;2023-07-31T05:41:36;2.73;;;2.40;;
735;SDS011;352;48.626;9.238;2023-07-31T05:44:04;3.63;;;2.80;;
735;SDS011;352;48.626;9.238;2023-07-31T05:46:31;3.20;;;2.80;;
735;SDS011;352;48.626;9.238;2023-07-31T05:48:58;3.93;;;2.83;;
735;SDS011;352;48.626;9.238;2023-07-31T05:51:25;3.60;;;3.30;;
735;SDS011;352;48.626;9.238;2023-07-31T05:53:52;2.50;;;2.17;;
735;SDS011;352;48.626;9.238;2023-07-31T05:56:19;3.63;;;2.43;;
735;SDS011;352;48.626;9.238;2023-07-31T05:58:46;3.87;;;3.23;;
735;SDS011;352;48.626;9.238;2023-07-31T06:01:15;4.23;;;2.90;;
735;SDS011;352;48.626;9.238;2023-07-31T06:03:42;9.23;;;4.20;;
735;SDS011;352;48.626;9.238;2023-07-31T06:06:09;4.83;;;3.23;;
735;SDS011;352;48.626;9.238;2023-07-31T06:08:36;6.60;;;3.50;;
735;SDS011;352;48.626;9.238;2023-07-31T06:11:03;3.97;;;2.97;;
735;SDS011;352;48.626;9.238;2023-07-31T06:13:30;4.47;;;3.40;;
735;SDS011;352;48.626;9.238;2023-07-31T06:15:57;4.10;;;3.47;;
735;SDS011;352;48.626;9.238;2023-07-31T06:18:26;4.03;;;3.20;;
735;SDS011;352;48.626;9.238;2023-07-31T06:20:53;3.30;;;2.93;;
735;SDS011;352;48.626;9.238;2023-07-31T06:23:20;3.30;;;3.00;;
735;SDS011;352;48.626;9.238;2023-07-31T06:25:47;4.33;;;2.90;;
735;SDS011;352;48.626;9.238;2023-07-31T06:28:13;3.67;;;3.10;;
735;SDS011;352;48.626;9.238;2023-07-31T06:30:40;4.90;;;3.37;;
735;SDS011;352;48.626;9.238;2023-07-31T06:33:07;4.17;;;3.33;;
735;SDS011;352;48.626;9.238;2023-07-31T06:35:35;3.20;;;2.70;;
735;SDS011;352;48.626;9.238;2023-07-31T06:38:02;3.40;;;3.10;;
735;SDS011;352;48.626;9.238;2023-07-31T06:40:29;4.33;;;3.13;;
735;SDS011;352;48.626;9.238;2023-07-31T06:42:56;3.60;;;3.07;;
735;SDS011;352;48.626;9.238;2023-07-31T06:45:22;4.27;;;2.90;;
735;SDS011;352;48.626;9.238;2023-07-31T06:47:49;4.17;;;2.90;;
735;SDS011;352;48.626;9.238;2023-07-31T06:50:16;3.30;;;3.00;;
735;SDS011;352;48.626;9.238;2023-07-31T06:52:45;3.47;;;3.17;;
735;SDS011;352;48.626;9.238;2023-07-31T06:55:16;6.67;;;3.40;;
735;SDS011;352;48.626;9.238;2023-07-31T06:57:44;3.87;;;3.17;;
735;SDS011;352;48.626;9.238;2023-07-31T07:00:12;5.10;;;2.77;;
735;SDS011;352;48.626;9.238;2023-07-31T07:02:39;4.77;;;3.07;;
735;SDS011;352;48.626;9.238;2023-07-31T07:05:06;5.63;;;3.63;;
735;SDS011;352;48.626;9.238;2023-07-31T07:07:33;126.00;;;117.70;;
735;SDS011;352;48.626;9.238;2023-07-31T07:10:02;112.27;;;107.50;;
735;SDS011;352;48.626;9.238;2023-07-31T07:12:30;207.43;;;193.03;;
735;SDS011;352;48.626;9.238;2023-07-31T07:14:58;31.67;;;29.60;;
735;SDS011;352;48.626;9.238;2023-07-31T07:17:25;63.80;;;59.23;;
735;SDS011;352;48.626;9.238;2023-07-31T07:19:53;8.43;;;4.20;;
735;SDS011;352;48.626;9.238;2023-07-31T07:22:20;7.57;;;4.87;;
735;SDS011;352;48.626;9.238;2023-07-31T07:24:48;6.00;;;3.63;;
735;SDS011;352;48.626;9.238;2023-07-31T07:27:16;14.00;;;4.13;;
735;SDS011;352;48.626;9.238;2023-07-31T07:29:43;6.70;;;3.53;;
735;SDS011;352;48.626;9.238;2023-07-31T07:32:10;5.37;;;3.50;;
735;SDS011;352;48.626;9.238;2023-07-31T07:34:37;6.40;;;3.10;;
735;SDS011;352;48.626;9.238;2023-07-31T07:37:05;9.17;;;3.60;;
735;SDS011;352;48.626;9.238;2023-07-31T07:39:31;13.77;;;12.47;;
735;SDS011;352;48.626;9.238;2023-07-31T07:41:58;7.80;;;4.13;;
735;SDS011;352;48.626;9.238;2023-07-31T07:44:27;6.90;;;4.47;;
735;SDS011;352;48.626;9.238;2023-07-31T07:46:54;7.03;;;4.47;;
735;SDS011;352;48.626;9.238;2023-07-31T07:49:21;10.10;;;5.23;;
735;SDS011;352;48.626;9.238;2023-07-31T07:51:48;7.23;;;4.17;;
735;SDS011;352;48.626;9.238;2023-07-31T07:54:15;8.80;;;4.50;;
735;SDS011;352;48.626;9.238;2023-07-31T07:56:42;7.07;;;4.37;;
735;SDS011;352;48.626;9.238;2023-07-31T07:59:09;6.93;;;4.80;;
735;SDS011;352;48.626;9.238;2023-07-31T08:01:38;18.83;;;9.70;;
735;SDS011;352;48.626;9.238;2023-07-31T08:04:04;5.43;;;4.60;;
735;SDS011;352;48.626;9.238;2023-07-31T08:06:31;45.90;;;43.17;;
735;SDS011;352;48.626;9.238;2023-07-31T08:08:58;171.97;;;161.27;;
735;SDS011;352;48.626;9.238;2023-07-31T08:11:30;50.27;;;44.73;;
735;SDS011;352;48.626;9.238;2023-07-31T08:13:57;4.60;;;2.90;;
735;SDS011;352;48.626;9.238;2023-07-31T08:16:24;7.03;;;3.97;;
735;SDS011;352;48.626;9.238;2023-07-31T08:18:52;83.30;;;79.23;;
735;SDS011;352;48.626;9.238;2023-07-31T08:21:18;37.23;;;20.23;;
735;SDS011;352;48.626;9.238;2023-07-31T08:23:45;14.43;;;5.30;;
735;SDS011;352;48.626;9.238;2023-07-31T08:26:14;10.33;;;6.87;;
735;SDS011;352;48.626;9.238;2023-07-31T08:28:41;25.97;;;19.53;;
735;SDS011;352;48.626;9.238;2023-07-31T08:31:08;19.87;;;17.67;;
735;SDS011;352;48.626;9.238;2023-07-31T08:33:35;473.23;;;430.43;;
735;SDS011;352;48.626;9.238;2023-07-31T08:36:04;95.33;;;91.80;;
735;SDS011;352;48.626;9.238;2023-07-31T08:38:31;503.37;;;474.77;;
735;SDS011;352;48.626;9.238;2023-07-31T08:40:58;553.60;;;519.90;;
735;SDS011;352;48.626;9.238;2023-07-31T08:43:25;513.83;;;481.97;;
735;SDS011;352;48.626;9.238;2023-07-31T08:45:53;542.87;;;505.57;;
735;SDS011;352;48.626;9.238;2023-07-31T08:48:21;546.13;;;505.73;;
735;SDS011;352;48.626;9.238;2023-07-31T08:50:49;545.67;;;513.27;;
735;SDS011;352;48.626;9.238;2023-07-31T08:53:17;506.63;;;466.30;;
735;SDS011;352;48.626;9.238;2023-07-31T08:55:44;530.63;;;486.67;;
735;SDS011;352;48.626;9.238;2023-07-31T08:58:12;540.20;;;501.60;;
735;SDS011;352;48.626;9.238;2023-07-31T09:00:39;550.00;;;507.53;;
735;SDS011;352;48.626;9.238;2023-07-31T09:03:09;543.77;;;500.73;;
735;SDS011;352;48.626;9.238;2023-07-31T09:05:40;578.97;;;534.60;;
735;SDS011;352;48.626;9.238;2023-07-31T09:08:09;555.87;;;513.30;;
735;SDS011;352;48.626;9.238;2023-07-31T09:10:40;544.47;;;506.60;;
735;SDS011;352;48.626;9.238;2023-07-31T09:13:07;502.17;;;475.90;;
735;SDS011;352;48.626;9.238;2023-07-31T09:15:35;292.13;;;282.87;;
735;SDS011;352;48.626;9.238;2023-07-31T09:18:03;119.37;;;114.90;;
735;SDS011;352;48.626;9.238;2023-07-31T09:20:30;72.67;;;70.00;;
735;SDS011;352;48.626;9.238;2023-07-31T09:23:02;56.13;;;53.10;;
735;SDS011;352;48.626;9.238;2023-07-31T09:25:32;34.03;;;31.23;;
735;SDS011;352;48.626;9.238;2023-07-31T09:28:01;20.00;;;18.37;;
735;SDS011;352;48.626;9.238;2023-07-31T09:30:29;16.03;;;14.17;;
735;SDS011;352;48.626;9.238;2023-07-31T09:33:00;24.33;;;22.23;;
735;SDS011;352;48.626;9.238;2023-07-31T09:35:28;27.27;;;24.83;;
735;SDS011;352;48.626;9.238;2023-07-31T09:37:57;25.63;;;23.33;;
735;SDS011;352;48.626;9.238;2023-07-31T09:40:25;17.20;;;13.07;;
735;SDS011;352;48.626;9.238;2023-07-31T09:42:53;15.77;;;12.93;;
735;SDS011;352;48.626;9.238;2023-07-31T09:45:21;15.40;;;13.30;;
735;SDS011;352;48.626;9.238;2023-07-31T09:47:49;16.63;;;12.77;;
735;SDS011;352;48.626;9.238;2023-07-31T09:50:16;25.37;;;23.27;;
735;SDS011;352;48.626;9.238;2023-07-31T09:52:43;13.43;;;9.60;;
735;SDS011;352;48.626;9.238;2023-07-31T09:55:10;10.33;;;7.50;;
735;SDS011;352;48.626;9.238;2023-07-31T09:57:38;8.10;;;6.03;;
735;SDS011;352;48.626;9.238;2023-07-31T10:00:07;12.83;;;8.27;;
735;SDS011;352;48.626;9.238;2023-07-31T10:02:36;10.63;;;8.00;;
735;SDS011;352;48.626;9.238;2023-07-31T10:05:05;11.70;;;7.30;;
735;SDS011;352;48.626;9.238;2023-07-31T10:07:34;9.77;;;5.93;;
735;SDS011;352;48.626;9.238;2023-07-31T10:10:03;7.80;;;5.80;;
735;SDS011;352;48.626;9.238;2023-07-31T10:12:33;10.10;;;6.10;;
735;SDS011;352;48.626;9.238;2023-07-31T10:15:00;10.43;;;6.33;;
735;SDS011;352;48.626;9.238;2023-07-31T10:17:27;10.27;;;6.73;;
735;SDS011;352;48.626;9.238;2023-07-31T10:19:57;13.30;;;7.43;;
735;SDS011;352;48.626;9.238;2023-07-31T10:22:26;7.80;;;4.60;;
735;SDS011;352;48.626;9.238;2023-07-31T10:24:54;8.90;;;6.03;;
735;SDS011;352;48.626;9.238;2023-07-31T10:27:23;10.00;;;7.27;;
735;SDS011;352;48.626;9.238;2023-07-31T10:29:50;9.30;;;6.47;;
735;SDS011;352;48.626;9.238;2023-07-31T10:32:18;8.27;;;6.37;;
735;SDS011;352;48.626;9.238;2023-07-31T10:34:46;10.13;;;7.20;;
735;SDS011;352;48.626;9.238;2023-07-31T10:37:23;7.40;;;6.30;;
735;SDS011;352;48.626;9.238;2023-07-31T10:39:55;11.87;;;8.60;;
735;SDS011;352;48.626;9.238;2023-07-31T10:42:27;12.73;;;8.70;;
735;SDS011;352;48.626;9.238;2023-07-31T10:44:59;14.37;;;11.10;;
735;SDS011;352;48.626;9.238;2023-07-31T10:47:27;13.33;;;9.70;;
735;SDS011;352;48.626;9.238;2023-07-31T10:52:42;15.40;;;12.20;;
735;SDS011;352;48.626;9.238;2023-07-31T10:55:27;13.60;;;11.17;;
735;SDS011;352;48.626;9.238;2023-07-31T10:57:55;19.70;;;17.27;;
735;SDS011;352;48.626;9.238;2023-07-31T11:00:24;18.53;;;16.13;;
735;SDS011;352;48.626;9.238;2023-07-31T11:02:56;21.43;;;18.50;;
735;SDS011;352;48.626;9.238;2023-07-31T11:05:42;88.90;;;84.90;;
735;SDS011;352;48.626;9.238;2023-07-31T11:08:15;47.83;;;45.23;;
735;SDS011;352;48.626;9.238;2023-07-31T11:10:44;34.07;;;32.07;;
735;SDS011;352;48.626;9.238;2023-07-31T11:13:11;268.40;;;254.73;;
735;SDS011;352;48.626;9.238;2023-07-31T11:15:39;22.37;;;19.37;;
735;SDS011;352;48.626;9.238;2023-07-31T11:18:06;18.20;;;14.37;;
735;SDS011;352;48.626;9.238;2023-07-31T11:20:33;15.53;;;12.80;;
735;SDS011;352;48.626;9.238;2023-07-31T11:23:01;14.53;;;11.50;;
735;SDS011;352;48.626;9.238;2023-07-31T11:25:30;14.03;;;11.50;;
735;SDS011;352;48.626;9.238;2023-07-31T11:27:57;14.97;;;10.33;;
735;SDS011;352;48.626;9.238;2023-07-31T11:30:29;17.60;;;9.20;;
735;SDS011;352;48.626;9.238;2023-07-31T11:32:56;8.50;;;7.40;;
735;SDS011;352;48.626;9.238;2023-07-31T11:35:23;10.20;;;8.13;;
735;SDS011;352;48.626;9.238;2023-07-31T11:37:50;9.40;;;7.20;;
735;SDS011;352;48.626;9.238;2023-07-31T11:40:17;12.57;;;8.53;;
735;SDS011;352;48.626;9.238;2023-07-31T11:42:46;10.03;;;7.83;;
735;SDS011;352;48.626;9.238;2023-07-31T11:45:13;6.47;;;5.13;;
735;SDS011;352;48.626;9.238;2023-07-31T11:47:40;8.27;;;6.03;;
735;SDS011;352;48.626;9.238;2023-07-31T11:50:10;5.87;;;4.90;;
735;SDS011;352;48.626;9.238;2023-07-31T11:52:39;10.47;;;6.17;;
735;SDS011;352;48.626;9.238;2023-07-31T11:55:08;7.27;;;4.83;;
735;SDS011;352;48.626;9.238;2023-07-31T11:57:36;9.00;;;5.80;;
735;SDS011;352;48.626;9.238;2023-07-31T12:00:07;8.30;;;5.07;;
735;SDS011;352;48.626;9.238;2023-07-31T12:02:36;7.23;;;5.60;;
735;SDS011;352;48.626;9.238;2023-07-31T12:05:04;8.30;;;5.07;;
735;SDS011;352;48.626;9.238;2023-07-31T12:07:42;9.50;;;5.57;;
735;SDS011;352;48.626;9.238;2023-07-31T12:10:23;5.63;;;4.50;;
735;SDS011;352;48.626;9.238;2023-07-31T12:13:00;7.50;;;5.30;;
735;SDS011;352;48.626;9.238;2023-07-31T12:15:31;6.40;;;4.90;;
735;SDS011;352;48.626;9.238;2023-07-31T12:18:07;6.20;;;4.83;;
735;SDS011;352;48.626;9.238;2023-07-31T12:20:34;7.80;;;5.70;;
735;SDS011;352;48.626;9.238;2023-07-31T12:23:02;7.60;;;5.00;;
735;SDS011;352;48.626;9.238;2023-07-31T12:25:30;7.40;;;4.73;;
735;SDS011;352;48.626;9.238;2023-07-31T12:27:57;7.30;;;4.70;;
735;SDS011;352;48.626;9.238;2023-07-31T12:30:28;10.10;;;4.90;;
735;SDS011;352;48.626;9.238;2023-07-31T12:32:56;5.47;;;4.20;;
735;SDS011;352;48.626;9.238;2023-07-31T12:35:23;6.23;;;4.30;;
735;SDS011;352;48.626;9.238;2023-07-31T12:37:50;5.60;;;4.10;;
735;SDS011;352;48.626;9.238;2023-07-31T12:40:17;6.37;;;4.47;;
735;SDS011;352;48.626;9.238;2023-07-31T12:42:43;4.30;;;3.70;;
735;SDS011;352;48.626;9.238;2023-07-31T12:45:11;4.60;;;3.90;;
735;SDS011;352;48.626;9.238;2023-07-31T12:47:38;4.90;;;3.87;;
735;SDS011;352;48.626;9.238;2023-07-31T12:50:07;8.03;;;5.20;;
735;SDS011;352;48.626;9.238;2023-07-31T12:52:34;5.83;;;4.00;;
735;SDS011;352;48.626;9.238;2023-07-31T12:55:01;7.10;;;4.00;;
735;SDS011;352;48.626;9.238;2023-07-31T12:57:29;7.23;;;4.93;;
735;SDS011;352;48.626;9.238;2023-07-31T12:59:56;6.27;;;4.40;;
735;SDS011;352;48.626;9.238;2023-07-31T13:02:23;6.10;;;4.13;;
735;SDS011;352;48.626;9.238;2023-07-31T13:04:50;6.90;;;4.30;;
735;SDS011;352;48.626;9.238;2023-07-31T13:07:19;7.33;;;4.67;;
735;SDS011;352;48.626;9.238;2023-07-31T13:09:46;5.93;;;4.30;;
735;SDS011;352;48.626;9.238;2023-07-31T13:12:13;6.80;;;4.30;;
735;SDS011;352;48.626;9.238;2023-07-31T13:14:40;4.83;;;4.20;;
735;SDS011;352;48.626;9.238;2023-07-31T13:17:07;5.60;;;4.00;;
735;SDS011;352;48.626;9.238;2023-07-31T13:19:34;6.40;;;4.17;;
735;SDS011;352;48.626;9.238;2023-07-31T13:22:01;5.07;;;3.70;;
735;SDS011;352;48.626;9.238;2023-07-31T13:24:30;7.73;;;3.83;;
735;SDS011;352;48.626;9.238;2023-07-31T13:26:57;5.20;;;4.13;;
735;SDS011;352;48.626;9.238;2023-07-31T13:29:23;4.87;;;3.80;;
735;SDS011;352;48.626;9.238;2023-07-31T13:31:51;8.73;;;6.53;;
735;SDS011;352;48.626;9.238;2023-07-31T13:34:18;7.17;;;4.30;;
735;SDS011;352;48.626;9.238;2023-07-31T13:36:45;8.23;;;5.10;;
735;SDS011;352;48.626;9.238;2023-07-31T13:39:12;6.00;;;4.53;;
735;SDS011;352;48.626;9.238;2023-07-31T13:41:41;12.30;;;7.17;;
735;SDS011;352;48.626;9.238;2023-07-31T13:44:07;6.50;;;4.17;;
735;SDS011;352;48.626;9.238;2023-07-31T13:46:35;7.43;;;4.80;;
735;SDS011;352;48.626;9.238;2023-07-31T13:49:02;5.97;;;4.40;;
735;SDS011;352;48.626;9.238;2023-07-31T13:51:29;8.57;;;5.57;;
735;SDS011;352;48.626;9.238;2023-07-31T13:53:56;5.73;;;4.40;;
735;SDS011;352;48.626;9.238;2023-07-31T13:56:23;6.83;;;4.37;;
735;SDS011;352;48.626;9.238;2023-07-31T13:58:51;4.30;;;3.77;;
735;SDS011;352;48.626;9.238;2023-07-31T14:01:19;6.40;;;4.10;;
735;SDS011;352;48.626;9.238;2023-07-31T14:03:46;4.03;;;3.53;;
735;SDS011;352;48.626;9.238;2023-07-31T14:06:13;4.77;;;4.27;;
735;SDS011;352;48.626;9.238;2023-07-31T14:08:40;6.00;;;4.23;;
735;SDS011;352;48.626;9.238;2023-07-31T14:11:07;5.83;;;4.27;;
735;SDS011;352;48.626;9.238;2023-07-31T14:13:34;8.57;;;4.07;;
735;SDS011;352;48.626;9.238;2023-07-31T14:16:02;5.57;;;4.03;;
735;SDS011;352;48.626;9.238;2023-07-31T14:18:29;5.60;;;4.80;;
735;SDS011;352;48.626;9.238;2023-07-31T14:20:56;4.30;;;3.80;;
735;SDS011;352;48.626;9.238;2023-07-31T14:23:23;5.97;;;4.03;;
735;SDS011;352;48.626;9.238;2023-07-31T14:25:50;5.93;;;4.33;;
735;SDS011;352;48.626;9.238;2023-07-31T14:28:16;4.60;;;4.20;;
735;SDS011;352;48.626;9.238;2023-07-31T14:30:43;4.87;;;4.37;;
735;SDS011;352;48.626;9.238;2023-07-31T14:33:11;6.67;;;4.33;;
735;SDS011;352;48.626;9.238;2023-07-31T14:35:38;5.00;;;4.53;;
735;SDS011;352;48.626;9.238;2023-07-31T14:38:05;5.77;;;4.67;;
735;SDS011;352;48.626;9.238;2023-07-31T14:40:32;5.30;;;4.80;;
735;SDS011;352;48.626;9.238;2023-07-31T14:42:59;6.90;;;3.73;;
735;SDS011;352;48.626;9.238;2023-07-31T14:45:26;4.67;;;4.17;;
735;SDS011;352;48.626;9.238;2023-07-31T14:47:53;5.20;;;4.37;;
735;SDS011;352;48.626;9.238;2023-07-31T14:50:21;5.03;;;4.53;;
735;SDS011;352;48.626;9.238;2023-07-31T14:52:48;5.03;;;4.30;;
735;SDS011;352;48.626;9.238;2023-07-31T14:55:15;4.73;;;4.30;;
735;SDS011;352;48.626;9.238;2023-07-31T14:57:42;4.90;;;4.40;;
735;SDS011;352;48.626;9.238;2023-07-31T15:00:09;4.80;;;4.03;;
735;SDS011;352;48.626;9.238;2023-07-31T15:02:37;5.70;;;4.77;;
735;SDS011;352;48.626;9.238;2023-07-31T15:05:04;5.10;;;4.17;;
735;SDS011;352;48.626;9.238;2023-07-31T15:07:33;4.53;;;4.20;;
735;SDS011;352;48.626;9.238;2023-07-31T15:10:00;5.00;;;4.50;;
735;SDS011;352;48.626;9.238;2023-07-31T15:12:27;5.20;;;4.70;;
735;SDS011;352;48.626;9.238;2023-07-31T15:14:54;5.23;;;4.73;;
735;SDS011;352;48.626;9.238;2023-07-31T15:17:21;4.80;;;4.30;;
735;SDS011;352;48.626;9.238;2023-07-31T15:19:49;8.40;;;4.40;;
735;SDS011;352;48.626;9.238;2023-07-31T15:22:16;6.53;;;4.67;;
735;SDS011;352;48.626;9.238;2023-07-31T15:24:44;6.53;;;4.27;;
735;SDS011;352;48.626;9.238;2023-07-31T15:27:11;4.90;;;3.90;;
735;SDS011;352;48.626;9.238;2023-07-31T15:29:37;5.37;;;4.47;;
735;SDS011;352;48.626;9.238;2023-07-31T15:32:05;4.53;;;4.10;;
735;SDS011;352;48.626;9.238;2023-07-31T15:34:32;7.37;;;4.60;;
735;SDS011;352;48.626;9.238;2023-07-31T15:36:59;11.00;;;5.43;;
735;SDS011;352;48.626;9.238;2023-07-31T15:39:25;5.53;;;4.70;;
735;SDS011;352;48.626;9.238;2023-07-31T15:41:54;6.07;;;4.30;;
735;SDS011;352;48.626;9.238;2023-07-31T15:44:21;5.27;;;4.77;;